Time;durP1;ratioP1;P1;durP2;ratioP2;P2;SDS_P1;SDS_P2;PMS_P1;PMS_P2;Temp;Humidity;BMP_temperature;BMP_pressure;BME280_temperature;BME280_humidity;BME280_pressure;Samples;Min_cycle;Max_cycle;Signal;HPM_P1;HPM_P2
2023/03/02 03:00:17;;;;;;;47.30;25.80;;;;;;;0.29;80.64;101346.21;102776;1291;601611;-86
2023/03/02 03:03:00;;;;;;;54.10;27.00;;;;;;;0.28;80.24;101347.26;105034;1267;59551;-85
2023/03/02 03:05:29;;;;;;;54.70;28.90;;;;;;;0.26;79.94;101353.11;105045;1266;61227;-85
2023/03/02 03:08:09;;;;;;;52.80;28.60;;;;;;;0.24;79.76;101356.23;105023;1267;73090;-85
2023/03/02 03:10:38;;;;;;;57.40;27.80;;;;;;;0.20;79.49;101360.71;105525;1266;63803;-83
2023/03/02 03:13:08;;;;;;;48.70;26.90;;;;;;;0.16;79.55;101355.58;106687;1259;627373;-83
2023/03/02 03:15:36;;;;;;;46.90;28.00;;;;;;;0.14;79.80;101356.10;106650;1254;60851;-86
2023/03/02 03:18:04;;;;;;;42.30;26.70;;;;;;;0.11;80.16;101353.55;106093;1256;61345;-86
2023/03/02 03:20:32;;;;;;;54.00;28.60;;;;;;;0.11;80.31;101356.11;105859;1256;71682;-84
2023/03/02 03:23:02;;;;;;;51.80;29.20;;;;;;;0.11;80.29;101357.33;105948;1256;64677;-86
2023/03/02 03:25:30;;;;;;;58.30;28.90;;;;;;;0.11;80.18;101356.98;107127;1254;73613;-83
2023/03/02 03:28:02;;;;;;;53.40;30.20;;;;;;;0.09;80.01;101354.58;107421;1256;59663;-83
2023/03/02 03:30:32;;;;;;;58.80;30.40;;;;;;;0.04;79.77;101357.17;106111;1254;61251;-86
2023/03/02 03:33:01;;;;;;;53.30;27.80;;;;;;;-0.04;79.82;101360.14;105989;1254;73840;-84
2023/03/02 03:35:33;;;;;;;51.80;29.00;;;;;;;-0.10;79.62;101363.09;106064;1256;64702;-85
2023/03/02 03:38:04;;;;;;;42.50;24.90;;;;;;;-0.15;79.64;101360.52;107276;1252;73546;-83
2023/03/02 03:40:33;;;;;;;55.30;28.60;;;;;;;-0.19;79.96;101360.55;106545;1256;61841;-87
2023/03/02 03:43:02;;;;;;;40.00;22.60;;;;;;;-0.21;80.32;101363.13;106164;1254;61280;-85
2023/03/02 03:45:37;;;;;;;54.20;26.30;;;;;;;-0.22;80.79;101366.58;106112;1255;74054;-84
2023/03/02 03:48:06;;;;;;;42.00;25.20;;;;;;;-0.22;80.79;101366.57;106064;1254;64134;-85
2023/03/02 03:50:35;;;;;;;41.20;24.10;;;;;;;-0.24;80.60;101362.79;106178;1256;72342;-84
2023/03/02 03:53:03;;;;;;;47.50;25.90;;;;;;;-0.27;80.47;101362.46;106331;1252;59747;-85
2023/03/02 03:55:32;;;;;;;43.90;23.30;;;;;;;-0.29;80.37;101356.96;106052;1252;60279;-84
2023/03/02 03:58:00;;;;;;;44.30;22.20;;;;;;;-0.31;80.53;101355.60;106203;1252;74227;-83
2023/03/02 04:00:29;;;;;;;45.70;24.30;;;;;;;-0.32;80.64;101353.02;106121;1256;64621;-84
2023/03/02 04:03:02;;;;;;;40.80;23.20;;;;;;;-0.33;80.78;101350.46;106451;1254;72611;-84
2023/03/02 04:05:32;;;;;;;41.70;22.90;;;;;;;-0.33;80.78;101355.61;106219;1256;62716;-83
2023/03/02 04:08:03;;;;;;;42.10;21.30;;;;;;;-0.33;81.06;101353.04;106594;1255;61202;-84
2023/03/02 04:10:32;;;;;;;45.90;25.00;;;;;;;-0.32;81.09;101356.48;106237;1254;74004;-84
2023/03/02 04:13:02;;;;;;;50.90;29.40;;;;;;;-0.31;80.86;101353.20;106089;1257;65510;-85
2023/03/02 04:15:34;;;;;;;61.50;30.50;;;;;;;-0.29;80.72;101353.71;106091;1253;73445;-83
2023/03/02 04:18:03;;;;;;;46.70;30.00;;;;;;;-0.30;80.54;101357.83;106016;1255;59717;-86
2023/03/02 04:20:34;;;;;;;61.50;31.70;;;;;;;-0.32;80.37;101356.63;106110;1254;61051;-86
2023/03/02 04:23:03;;;;;;;55.80;29.30;;;;;;;-0.34;80.09;101353.56;106090;1254;72329;-85
2023/03/02 04:25:34;;;;;;;52.50;29.70;;;;;;;-0.36;79.96;101354.93;106210;1253;63987;-86
2023/03/02 04:28:07;;;;;;;54.30;29.20;;;;;;;-0.40;79.79;101355.63;108423;1252;72912;-82
2023/03/02 04:30:43;;;;;;;63.90;32.70;;;;;;;-0.46;79.83;101347.58;107116;1255;60936;-84
2023/03/02 04:33:12;;;;;;;64.60;33.20;;;;;;;-0.49;79.87;101349.65;106347;1254;60536;-86
2023/03/02 04:35:41;;;;;;;71.30;34.90;;;;;;;-0.49;80.03;101350.67;106175;1251;71950;-84
2023/03/02 04:38:10;;;;;;;66.80;36.00;;;;;;;-0.47;79.99;101353.25;106530;1259;65012;-85
2023/03/02 04:40:38;;;;;;;75.30;39.50;;;;;;;-0.43;79.90;101354.09;107073;1252;73637;-82
2023/03/02 04:43:07;;;;;;;66.60;38.80;;;;;;;-0.38;79.64;101355.27;106803;1254;59765;-82
2023/03/02 04:45:36;;;;;;;71.40;39.10;;;;;;;-0.34;79.22;101356.83;106604;1254;60581;-84
2023/03/02 04:48:06;;;;;;;81.20;40.90;;;;;;;-0.33;78.90;101359.91;106510;1256;74105;-82
2023/03/02 04:50:37;;;;;;;73.30;36.80;;;;;;;-0.34;78.55;101363.52;106560;1254;64389;-85
2023/03/02 04:53:06;;;;;;;74.10;34.00;;;;;;;-0.34;78.31;101367.98;108941;1254;72565;-84
2023/03/02 04:55:34;;;;;;;63.60;35.60;;;;;;;-0.33;78.22;101362.65;109757;1251;61145;-84
2023/03/02 04:58:03;;;;;;;69.40;32.80;;;;;;;-0.32;78.31;101358.69;107931;1255;60245;-84
2023/03/02 05:00:47;;;;;;;63.70;33.00;;;;;;;-0.29;78.18;101358.00;109228;1254;72270;-83
2023/03/02 05:03:15;;;;;;;64.10;32.50;;;;;;;-0.25;78.17;101355.92;109427;1252;63829;-84
2023/03/02 05:05:45;;;;;;;65.80;33.10;;;;;;;-0.20;77.87;101358.48;107534;1256;72606;-86
2023/03/02 05:08:13;;;;;;;69.20;34.90;;;;;;;-0.17;77.58;101360.19;106580;1256;60295;-84
2023/03/02 05:10:42;;;;;;;65.40;34.90;;;;;;;-0.14;77.32;101356.07;106437;1254;61010;-85
2023/03/02 05:13:11;;;;;;;73.80;36.40;;;;;;;-0.13;77.08;101355.54;106068;1255;74028;-86
2023/03/02 05:15:40;;;;;;;63.90;33.60;;;;;;;-0.13;76.83;101358.81;106085;1256;63090;-86
2023/03/02 05:18:11;;;;;;;60.20;29.80;;;;;;;-0.12;76.47;101356.90;106174;1256;73843;-86
2023/03/02 05:20:42;;;;;;;53.30;31.10;;;;;;;-0.11;76.30;101361.54;106174;1256;62557;-82
2023/03/02 05:23:22;;;;;;;55.10;28.20;;;;;;;-0.08;76.51;101363.60;107374;1254;61028;-83
2023/03/02 05:25:57;;;;;;;51.90;29.10;;;;;;;0.01;76.44;101365.10;106617;1254;73737;-84
2023/03/02 05:28:26;;;;;;;48.30;26.50;;;;;;;0.18;76.55;101363.98;106202;1256;64852;-86
2023/03/02 05:30:55;;;;;;;50.90;28.60;;;;;;;0.46;76.80;101369.85;106220;1256;72679;-85
2023/03/02 05:33:23;;;;;;;64.10;31.70;;;;;;;0.87;76.22;101373.52;106265;1254;59688;-85
2023/03/02 05:35:52;;;;;;;55.50;30.00;;;;;;;1.37;75.52;101377.39;106190;1253;61324;-86
2023/03/02 05:38:20;;;;;;;64.60;32.80;;;;;;;1.91;74.14;101376.29;107500;1252;72954;-86
2023/03/02 05:40:50;;;;;;;69.50;36.60;;;;;;;2.31;72.30;101380.09;106667;1256;64777;-84
2023/03/02 05:43:22;;;;;;;56.40;30.10;;;;;;;2.63;70.79;101384.46;106133;1254;73532;-85
2023/03/02 05:45:51;;;;;;;46.70;29.40;;;;;;;3.04;69.88;101388.66;106519;1254;60579;-85
2023/03/02 05:48:22;;;;;;;46.50;27.10;;;;;;;3.56;68.41;101389.67;108208;1254;59991;-85
2023/03/02 05:50:53;;;;;;;42.10;23.00;;;;;;;4.16;66.73;101392.98;106854;1254;73745;-86
2023/03/02 05:53:23;;;;;;;48.90;23.40;;;;;;;4.75;64.45;101392.70;106468;1256;64800;-86
2023/03/02 05:55:52;;;;;;;44.90;22.60;;;;;;;5.27;62.26;101393.70;106171;1256;73835;-86
2023/03/02 05:58:20;;;;;;;38.70;19.70;;;;;;;5.74;60.50;101387.95;107847;1252;60460;-86
2023/03/02 06:00:49;;;;;;;36.70;21.50;;;;;;;6.16;58.76;101390.80;107162;1254;59641;-85
2023/03/02 06:03:21;;;;;;;42.00;22.50;;;;;;;6.58;57.11;101394.94;106537;1252;72972;-85
2023/03/02 06:05:55;;;;;;;43.00;22.70;;;;;;;7.05;55.24;101398.46;107447;1256;65165;-82
2023/03/02 06:08:23;;;;;;;45.80;25.00;;;;;;;7.59;54.06;101403.27;106883;1257;72406;-84
2023/03/02 06:10:55;;;;;;;43.10;22.30;;;;;;;8.14;52.14;101406.33;106815;1256;60273;-87
2023/03/02 06:13:24;;;;;;;40.70;18.70;;;;;;;8.68;50.87;101401.52;106865;1254;61283;-86
2023/03/02 06:15:52;;;;;;;39.10;18.40;;;;;;;9.21;49.21;101407.74;106679;1257;73322;-87
2023/03/02 06:18:20;;;;;;;39.30;19.20;;;;;;;9.64;47.63;101403.81;106402;1254;64861;-87
2023/03/02 06:20:49;;;;;;;33.40;18.80;;;;;;;10.08;46.22;101401.68;106109;1254;73349;-87
2023/03/02 06:23:18;;;;;;;38.50;18.70;;;;;;;10.49;45.10;101405.94;106036;1256;61093;-86
2023/03/02 06:25:47;;;;;;;37.60;19.40;;;;;;;10.87;43.87;101405.55;106179;1252;60034;-88
2023/03/02 06:28:18;;;;;;;32.80;18.80;;;;;;;11.17;42.57;101405.63;106159;1254;73918;-87
2023/03/02 06:30:51;;;;;;;30.80;18.00;;;;;;;11.43;41.77;101404.71;106187;1256;64806;-86
2023/03/02 06:33:20;;;;;;;35.20;17.30;;;;;;;11.77;41.31;101408.73;106196;1253;73000;-88
2023/03/02 06:35:49;;;;;;;32.00;15.20;;;;;;;12.12;40.10;101409.55;106144;1251;61241;-86
2023/03/02 06:38:17;;;;;;;32.40;13.30;;;;;;;12.41;39.14;101405.49;106325;1254;61047;-87
2023/03/02 06:40:46;;;;;;;26.40;12.40;;;;;;;12.64;38.02;101405.10;106671;1257;72086;-86
2023/03/02 06:43:16;;;;;;;24.00;11.10;;;;;;;12.79;37.55;101405.67;106877;1256;65159;-86
2023/03/02 06:45:45;;;;;;;24.70;11.00;;;;;;;13.02;37.41;101406.83;107023;1254;72494;-88
2023/03/02 06:48:15;;;;;;;25.80;11.50;;;;;;;13.34;37.07;101407.08;106657;1254;61351;-87
2023/03/02 06:50:44;;;;;;;24.90;11.80;;;;;;;13.54;36.09;101407.69;106526;1254;61419;-87
2023/03/02 06:53:19;;;;;;;20.60;10.50;;;;;;;13.43;35.63;101407.40;106485;1254;71894;-85
2023/03/02 06:55:47;;;;;;;20.60;10.00;;;;;;;12.96;35.21;101404.36;106540;1254;64896;-84
2023/03/02 06:58:16;;;;;;;21.20;11.40;;;;;;;12.26;35.50;101407.89;106552;1256;73730;-86
2023/03/02 07:00:45;;;;;;;23.60;12.00;;;;;;;11.47;36.20;101400.61;106583;1257;60022;-86
2023/03/02 07:03:13;;;;;;;19.60;10.60;;;;;;;10.78;37.25;101400.56;106486;1257;60405;-85
2023/03/02 07:05:42;;;;;;;24.80;11.70;;;;;;;10.25;37.91;101402.69;106563;1251;74308;-86
2023/03/02 07:08:14;;;;;;;30.30;11.20;;;;;;;9.69;38.57;101403.43;106421;1256;63969;-87
2023/03/02 07:10:43;;;;;;;19.50;11.40;;;;;;;9.17;39.80;101403.71;106187;1256;73639;-86
2023/03/02 07:13:11;;;;;;;22.00;10.60;;;;;;;8.71;40.55;101408.20;106108;1255;60555;-88
2023/03/02 07:15:43;;;;;;;21.10;12.80;;;;;;;8.25;41.16;101405.41;105980;1254;60409;-86
2023/03/02 07:18:12;;;;;;;26.40;14.70;;;;;;;7.85;41.62;101402.84;106019;1256;74990;-86
2023/03/02 07:20:40;;;;;;;27.40;13.70;;;;;;;7.38;42.26;101406.39;106213;1256;65359;-86
2023/03/02 07:23:08;;;;;;;20.70;12.20;;;;;;;6.99;42.99;101406.66;107725;1253;72713;-85
2023/03/02 07:25:37;;;;;;;18.20;10.30;;;;;;;6.65;43.74;101406.19;108242;1254;59320;-84
2023/03/02 07:28:07;;;;;;;21.80;10.20;;;;;;;6.40;44.33;101407.81;106883;1256;60501;-86
2023/03/02 07:30:37;;;;;;;21.90;8.70;;;;;;;6.19;45.22;101407.55;107753;1252;74126;-84
2023/03/02 07:33:05;;;;;;;15.30;7.30;;;;;;;6.08;45.53;101409.95;107387;1256;63784;-86
2023/03/02 07:35:35;;;;;;;10.20;5.90;;;;;;;6.06;45.70;101408.77;106950;1256;72642;-86
2023/03/02 07:38:03;;;;;;;13.70;6.00;;;;;;;6.20;45.76;101411.87;107035;1254;61006;-84
2023/03/02 07:40:32;;;;;;;8.30;4.00;;;;;;;6.69;45.81;101408.14;106632;1256;60377;-85
2023/03/02 07:43:01;;;;;;;8.60;3.60;;;;;;;7.50;44.51;101404.96;106745;1254;75126;-87
2023/03/02 07:45:30;;;;;;;8.10;3.50;;;;;;;8.41;43.40;101404.08;106586;1254;62808;-85
2023/03/02 07:47:58;;;;;;;7.50;3.70;;;;;;;9.28;41.64;101404.65;106576;1254;73632;-85
2023/03/02 07:50:26;;;;;;;5.90;3.80;;;;;;;9.82;40.77;101399.37;107411;1253;60491;-86
2023/03/02 07:52:55;;;;;;;8.50;5.30;;;;;;;10.16;39.67;101397.50;106613;1257;61994;-87
2023/03/02 07:55:27;;;;;;;6.60;3.70;;;;;;;10.31;39.56;101397.16;106763;1260;73841;-86
2023/03/02 07:57:57;;;;;;;5.80;3.70;;;;;;;10.38;38.99;101396.02;106431;1252;63855;-86
2023/03/02 08:00:28;;;;;;;6.40;3.90;;;;;;;10.26;38.75;101395.28;106679;1253;73593;-84
2023/03/02 08:02:56;;;;;;;5.70;3.50;;;;;;;10.17;38.44;101395.71;106943;1252;60539;-85
2023/03/02 08:05:26;;;;;;;13.50;4.60;;;;;;;10.08;38.57;101396.48;106897;1251;60988;-86
2023/03/02 08:07:54;;;;;;;12.90;5.30;;;;;;;10.15;39.29;101388.48;109596;1252;74999;-85
2023/03/02 08:10:23;;;;;;;9.00;5.00;;;;;;;10.41;39.08;101389.01;109752;1253;63499;-85
2023/03/02 08:12:52;;;;;;;15.10;6.70;;;;;;;10.76;38.46;101388.77;108559;1253;72368;-87
2023/03/02 08:15:22;;;;;;;15.90;9.10;;;;;;;11.03;37.34;101386.05;108626;1252;60893;-86
2023/03/02 08:17:51;;;;;;;16.80;8.20;;;;;;;11.14;36.55;101388.67;108326;1254;60420;-84
2023/03/02 08:20:20;;;;;;;18.10;8.20;;;;;;;11.19;36.01;101386.62;108588;1254;74961;-85
2023/03/02 08:22:51;;;;;;;17.40;10.00;;;;;;;11.35;35.69;101388.27;108204;1253;66233;-85
2023/03/02 08:25:20;;;;;;;16.50;8.90;;;;;;;11.62;35.30;101386.92;106498;1258;72315;-84
2023/03/02 08:27:48;;;;;;;13.20;7.90;;;;;;;11.96;34.55;101384.98;106256;1257;61595;-85
2023/03/02 08:30:21;;;;;;;19.70;9.90;;;;;;;12.24;34.76;101372.23;106296;1255;61417;-86
2023/03/02 08:32:49;;;;;;;18.30;8.40;;;;;;;12.68;34.29;101373.13;106313;1256;74849;-84
2023/03/02 08:35:18;;;;;;;17.00;8.20;;;;;;;13.16;33.94;101374.55;106366;1256;64934;-86
2023/03/02 08:37:48;;;;;;;16.00;8.60;;;;;;;13.58;33.13;101368.92;106337;1257;73654;-88
2023/03/02 08:40:17;;;;;;;15.10;9.30;;;;;;;14.02;32.67;101366.23;106081;1256;60651;-86
2023/03/02 08:42:45;;;;;;;15.30;8.80;;;;;;;14.50;32.13;101369.52;106003;1256;60322;-87
2023/03/02 08:45:20;;;;;;;13.90;9.20;;;;;;;15.03;31.75;101374.20;106264;1256;74810;-87
2023/03/02 08:47:52;;;;;;;16.60;9.40;;;;;;;15.49;30.80;101370.02;106135;1256;64743;-86
2023/03/02 08:50:20;;;;;;;11.30;7.80;;;;;;;15.83;29.70;101365.27;106198;1256;72831;-85
2023/03/02 08:52:50;;;;;;;11.10;5.40;;;;;;;16.01;29.57;101363.61;106520;1253;60517;-86
2023/03/02 08:55:20;;;;;;;6.20;3.80;;;;;;;16.30;28.51;101362.98;107270;1254;61247;-84
2023/03/02 08:57:48;;;;;;;8.30;4.50;;;;;;;16.45;28.33;101358.54;109096;1253;73782;-86
2023/03/02 09:00:17;;;;;;;10.20;4.00;;;;;;;16.56;27.83;101362.13;109706;1254;64381;-84
2023/03/02 09:02:46;;;;;;;8.80;5.00;;;;;;;16.69;27.70;101361.52;109699;1256;72531;-86
2023/03/02 09:05:14;;;;;;;7.80;4.70;;;;;;;16.84;27.56;101361.30;109442;1256;60023;-85
2023/03/02 09:07:43;;;;;;;11.70;5.40;;;;;;;16.98;27.49;101365.56;109709;1253;60196;-86
2023/03/02 09:10:16;;;;;;;10.00;4.90;;;;;;;17.22;26.95;101358.69;109688;1254;73773;-84
2023/03/02 09:12:47;;;;;;;8.20;5.00;;;;;;;17.34;26.59;101352.11;109741;1253;63757;-84
2023/03/02 09:15:15;;;;;;;10.80;5.90;;;;;;;17.32;26.57;101354.35;109356;1253;72581;-85
2023/03/02 09:17:51;;;;;;;11.80;5.60;;;;;;;17.29;26.84;101349.48;108742;1254;60315;-86
2023/03/02 09:20:19;;;;;;;11.20;5.00;;;;;;;17.43;27.04;101352.65;108796;1256;60304;-85
2023/03/02 09:22:49;;;;;;;4.50;3.40;;;;;;;17.57;26.58;101350.43;109706;1254;73550;-84
2023/03/02 09:25:20;;;;;;;14.60;6.10;;;;;;;17.58;26.70;101347.57;109280;1254;63777;-85
2023/03/02 09:27:48;;;;;;;15.40;6.40;;;;;;;17.70;26.55;101346.27;109053;1253;73367;-87
2023/03/02 09:30:17;;;;;;;13.60;7.00;;;;;;;17.84;26.16;101344.70;108946;1254;60398;-85
2023/03/02 09:32:47;;;;;;;11.80;6.10;;;;;;;17.83;26.31;101344.95;106167;1253;61345;-86
2023/03/02 09:35:16;;;;;;;9.60;5.40;;;;;;;17.91;26.31;101354.70;106011;1259;74659;-88
2023/03/02 09:37:46;;;;;;;10.70;6.10;;;;;;;18.01;26.05;101350.40;105976;1254;63783;-88
2023/03/02 09:40:19;;;;;;;12.50;6.70;;;;;;;18.09;25.93;101342.17;106289;1256;73626;-86
2023/03/02 09:43:17;;;;;;;11.80;6.80;;;;;;;18.03;26.09;101340.34;106249;1257;61184;-83
2023/03/02 09:46:13;;;;;;;10.00;5.10;;;;;;;17.54;26.23;101340.43;106357;1254;61590;-85
2023/03/02 09:49:12;;;;;;;7.20;3.40;;;;;;;17.26;26.53;101337.48;106483;1256;74743;-86
2023/03/02 09:51:41;;;;;;;4.90;2.80;;;;;;;17.13;26.59;101334.79;107314;1254;65105;-86
2023/03/02 09:54:09;;;;;;;6.40;3.10;;;;;;;17.17;26.77;101335.69;106496;1257;72974;-86
2023/03/02 09:56:47;;;;;;;6.60;2.60;;;;;;;17.35;27.08;101338.73;106325;1258;61349;-84
2023/03/02 09:59:30;;;;;;;3.80;2.10;;;;;;;17.52;26.70;101331.81;106672;1254;60452;-88
2023/03/02 10:02:25;;;;;;;6.70;2.40;;;;;;;17.64;26.73;101330.27;105954;1255;74809;-88
2023/03/02 10:04:55;;;;;;;2.90;1.50;;;;;;;17.78;26.92;101328.46;106657;1254;63844;-86
2023/03/02 10:07:28;;;;;;;2.90;1.50;;;;;;;17.75;26.27;101324.14;106739;1254;72442;-86
2023/03/02 10:10:09;;;;;;;3.50;1.70;;;;;;;17.62;26.82;101318.80;106747;1256;60421;-86
2023/03/02 10:12:55;;;;;;;4.20;1.70;;;;;;;17.74;26.75;101318.19;106831;1254;60508;-86
2023/03/02 10:15:36;;;;;;;6.60;2.20;;;;;;;17.90;26.91;101315.39;106955;1256;74950;-86
2023/03/02 10:18:20;;;;;;;;;;;;;;;17.96;26.38;101316.28;107084;1255;64864;-86
2023/03/02 10:21:14;;;;;;;3.80;2.00;;;;;;;17.74;26.17;101316.94;107670;1254;71680;-84
2023/03/02 10:23:58;;;;;;;7.70;3.50;;;;;;;17.37;26.38;101320.95;106988;1261;61189;-85
2023/03/02 10:26:41;;;;;;;7.10;3.40;;;;;;;16.91;26.98;101323.77;106824;1258;60609;-82
2023/03/02 10:29:27;;;;;;;7.80;4.20;;;;;;;16.77;27.16;101325.77;108704;1257;73840;-85
2023/03/02 10:32:13;;;;;;;11.90;4.00;;;;;;;16.68;27.30;101323.64;107401;1260;63768;-86
2023/03/02 10:34:44;;;;;;;8.00;3.70;;;;;;;16.49;27.14;101316.73;106154;1257;73674;-85
2023/03/02 10:37:15;;;;;;;5.90;3.70;;;;;;;16.43;27.57;101316.81;106198;1257;61364;-86
2023/03/02 10:39:43;;;;;;;7.00;3.50;;;;;;;16.51;27.73;101319.91;107720;1258;60323;-85
2023/03/02 10:42:19;;;;;;;11.70;4.20;;;;;;;16.65;27.46;101321.05;106946;1260;72679;-85
2023/03/02 10:44:50;;;;;;;6.20;3.80;;;;;;;16.84;27.76;101327.64;106339;1260;63894;-87
2023/03/02 10:47:26;;;;;;;6.40;3.60;;;;;;;16.80;27.16;101335.15;106087;1263;73912;-89
2023/03/02 10:49:56;;;;;;;13.60;5.60;;;;;;;16.44;27.42;101331.25;107218;1256;60549;-87
2023/03/02 10:52:25;;;;;;;15.70;5.50;;;;;;;16.11;28.20;101325.51;109103;1257;60425;-85
2023/03/02 10:55:05;;;;;;;8.60;4.10;;;;;;;16.13;28.60;101327.15;109269;1258;73192;-86
2023/03/02 10:57:57;;;;;;;8.70;5.10;;;;;;;16.23;28.50;101329.77;109277;1257;64141;-87
2023/03/02 11:00:27;;;;;;;9.10;6.10;;;;;;;16.29;28.37;101327.90;109437;1252;72773;-86
2023/03/02 11:03:02;;;;;;;9.10;5.40;;;;;;;16.20;28.17;101321.86;109676;1253;60002;-86
2023/03/02 11:05:35;;;;;;;9.90;6.10;;;;;;;16.12;28.75;101324.20;109675;1253;60021;-86
2023/03/02 11:08:31;;;;;;;10.30;4.80;;;;;;;16.09;28.59;101319.63;109651;1255;73760;-86
2023/03/02 11:11:22;;;;;;;9.00;6.30;;;;;;;16.09;29.01;101324.02;109188;1260;63547;-87
2023/03/02 11:14:09;;;;;;;12.70;6.30;;;;;;;16.06;29.05;101320.92;109089;1260;72288;-85
2023/03/02 11:16:37;;;;;;;7.40;4.00;;;;;;;16.11;29.37;101318.42;109080;1260;60350;-88
2023/03/02 11:19:30;;;;;;;6.00;4.50;;;;;;;16.32;28.95;101324.71;109156;1259;60091;-86
2023/03/02 11:22:14;;;;;;;6.20;3.70;;;;;;;16.50;29.11;101321.08;109093;1260;73504;-86
2023/03/02 11:24:48;;;;;;;9.20;5.50;;;;;;;16.66;28.92;101324.16;109059;1260;63831;-84
2023/03/02 11:27:27;;;;;;;8.90;4.60;;;;;;;16.64;28.81;101324.27;109041;1261;72899;-86
2023/03/02 11:30:21;;;;;;;9.40;5.50;;;;;;;16.40;28.79;101316.17;107889;1260;60477;-87
2023/03/02 11:32:55;;;;;;;9.80;6.00;;;;;;;16.13;28.90;101313.92;105894;1265;60411;-87
2023/03/02 11:35:31;;;;;;;7.80;4.00;;;;;;;15.84;29.06;101321.77;105777;1260;74897;-86
2023/03/02 11:38:16;;;;;;;8.10;3.40;;;;;;;15.41;29.54;101316.80;106748;1264;65453;-86
2023/03/02 11:40:46;;;;;;;;;;;;;;;15.04;30.34;101310.41;106815;1260;73712;-85
2023/03/02 11:43:21;;;;;;;5.60;3.00;;;;;;;14.89;31.30;101312.09;107387;1260;60641;-84
2023/03/02 11:46:00;;;;;;;6.40;3.60;;;;;;;14.84;31.57;101310.10;107140;1260;60366;-85
2023/03/02 11:48:42;;;;;;;6.60;3.00;;;;;;;14.74;31.63;101306.59;106619;1254;73752;-86
2023/03/02 11:51:12;;;;;;;6.20;2.90;;;;;;;14.67;32.13;101303.89;106332;1257;63770;-87
2023/03/02 11:53:45;;;;;;;4.40;2.40;;;;;;;14.60;32.11;101304.89;106096;1254;71781;-86
2023/03/02 11:56:14;;;;;;;7.50;3.10;;;;;;;14.45;32.03;101303.70;106253;1254;61695;-85
2023/03/02 11:58:48;;;;;;;5.50;2.20;;;;;;;14.28;32.32;101305.70;106390;1254;60543;-86
2023/03/02 12:01:21;;;;;;;6.80;2.40;;;;;;;14.12;32.75;101313.24;106846;1259;74802;-86
2023/03/02 12:03:52;;;;;;;4.70;2.30;;;;;;;13.97;33.44;101310.81;107537;1259;62649;-86
2023/03/02 12:06:21;;;;;;;5.10;3.20;;;;;;;13.92;33.44;101314.11;107174;1259;72278;-84
2023/03/02 12:08:52;;;;;;;7.30;4.10;;;;;;;13.87;33.47;101309.30;107242;1254;60432;-87
2023/03/02 12:11:20;;;;;;;9.50;4.30;;;;;;;13.80;33.39;101306.58;107051;1255;60752;-85
2023/03/02 12:14:02;;;;;;;9.90;3.70;;;;;;;13.69;33.67;101306.05;107273;1253;74790;-86
2023/03/02 12:16:39;;;;;;;5.90;3.60;;;;;;;13.56;33.81;101311.96;107175;1254;63443;-86
2023/03/02 12:19:28;;;;;;;4.90;2.70;;;;;;;13.45;34.11;101310.71;107101;1254;72604;-84
2023/03/02 12:22:04;;;;;;;8.20;3.20;;;;;;;13.28;34.50;101313.64;107094;1254;60622;-86
2023/03/02 12:24:35;;;;;;;5.10;2.90;;;;;;;13.11;34.93;101313.45;107095;1254;60803;-86
2023/03/02 12:27:11;;;;;;;6.70;4.00;;;;;;;12.93;35.23;101310.94;107244;1257;73304;-86
2023/03/02 12:29:45;;;;;;;4.70;2.20;;;;;;;12.76;35.15;101310.77;107135;1254;63860;-85
2023/03/02 12:32:29;;;;;;;11.60;4.10;;;;;;;12.45;35.72;101305.83;106754;1259;72982;-87
2023/03/02 12:35:07;;;;;;;6.60;3.00;;;;;;;12.29;36.31;101307.98;107073;1254;61173;-86
2023/03/02 12:37:55;;;;;;;7.90;3.30;;;;;;;12.15;36.33;101304.34;106559;1254;60582;-87
2023/03/02 12:40:44;;;;;;;8.00;2.40;;;;;;;12.07;36.31;101304.85;105982;1254;73880;-85
2023/03/02 12:43:46;;;;;;;3.40;2.20;;;;;;;11.97;36.58;101305.55;106953;1257;63612;-87
2023/03/02 12:46:32;;;;;;;3.80;1.60;;;;;;;11.76;36.60;101306.83;106163;1254;73088;-86
2023/03/02 12:49:09;;;;;;;4.20;2.60;;;;;;;11.52;37.30;101304.58;107319;1254;60568;-85
2023/03/02 12:52:01;;;;;;;7.30;2.70;;;;;;;11.36;37.40;101306.62;106280;1257;60834;-86
2023/03/02 12:54:31;;;;;;;6.50;2.90;;;;;;;11.15;37.74;101303.34;106334;1254;74779;-84
2023/03/02 12:57:22;;;;;;;12.20;6.00;;;;;;;10.96;38.40;101299.98;106900;1257;64847;-85
2023/03/02 13:00:39;;;;;;;10.90;4.20;;;;;;;10.74;38.64;101294.92;107971;1253;73653;-84
2023/03/02 13:03:12;;;;;;;10.40;3.40;;;;;;;10.60;38.67;101294.91;107208;1254;60387;-86
2023/03/02 13:05:41;;;;;;;7.90;3.10;;;;;;;10.42;38.93;101294.59;107500;1254;59960;-85
2023/03/02 13:08:23;;;;;;;6.60;2.30;;;;;;;10.30;39.40;101290.25;107190;1260;73771;-85
2023/03/02 13:10:53;;;;;;;4.80;2.10;;;;;;;10.24;39.65;101290.71;107148;1260;63640;-85
2023/03/02 13:13:41;;;;;;;5.90;3.10;;;;;;;10.17;39.80;101287.53;107207;1254;71412;-86
2023/03/02 13:16:20;;;;;;;6.50;2.80;;;;;;;10.05;40.17;101285.67;107159;1257;61409;-88
2023/03/02 13:19:13;;;;;;;6.70;2.90;;;;;;;9.92;40.26;101277.87;107942;1253;62168;-87
2023/03/02 13:21:49;;;;;;;5.40;2.50;;;;;;;9.83;40.82;101272.36;108964;1259;74052;-86
2023/03/02 13:24:43;;;;;;;4.40;1.80;;;;;;;9.82;40.86;101277.83;109195;1258;62815;-86
2023/03/02 13:27:19;;;;;;;5.60;2.10;;;;;;;9.70;40.71;101276.09;109031;1259;72357;-87
2023/03/02 13:29:48;;;;;;;5.70;1.90;;;;;;;9.50;41.09;101272.96;107565;1259;59313;-89
2023/03/02 13:32:59;;;;;;;10.70;1.90;;;;;;;9.41;41.39;101279.69;107441;1258;60304;-86
2023/03/02 13:35:44;;;;;;;6.90;2.50;;;;;;;9.37;41.79;101280.41;105851;1265;73681;-87
2023/03/02 13:38:19;;;;;;;5.00;1.80;;;;;;;9.34;41.92;101279.64;106461;1269;65608;-85
2023/03/02 13:40:52;;;;;;;7.70;2.10;;;;;;;9.23;41.89;101276.98;106474;1265;72506;-86
2023/03/02 13:43:30;;;;;;;6.90;2.20;;;;;;;9.17;42.27;101272.02;106478;1265;60493;-85
2023/03/02 13:46:01;;;;;;;6.30;1.90;;;;;;;9.11;42.44;101270.50;107354;1253;60366;-86
2023/03/02 13:48:30;;;;;;;8.10;2.30;;;;;;;9.06;42.46;101275.80;107266;1260;73629;-85
2023/03/02 13:51:03;;;;;;;4.30;1.70;;;;;;;9.02;42.67;101270.19;107136;1256;63837;-86
2023/03/02 13:53:36;;;;;;;6.50;2.80;;;;;;;9.03;42.94;101265.46;107043;1257;72622;-86
2023/03/02 13:56:14;;;;;;;8.50;2.90;;;;;;;9.04;42.95;101265.75;107112;1257;60411;-86
2023/03/02 13:58:44;;;;;;;9.30;3.30;;;;;;;9.02;42.99;101265.15;106941;1258;61484;-87
2023/03/02 14:01:13;;;;;;;5.40;3.10;;;;;;;8.93;43.01;101264.99;107036;1260;74822;-89
2023/03/02 14:03:41;;;;;;;4.40;1.70;;;;;;;8.86;43.46;101261.30;107027;1258;64231;-87
2023/03/02 14:06:11;;;;;;;4.60;1.50;;;;;;;8.77;43.30;101265.19;106936;1258;73686;-86
2023/03/02 14:08:39;;;;;;;5.20;1.70;;;;;;;8.65;43.31;101263.20;106943;1258;60784;-85
2023/03/02 14:11:09;;;;;;;2.40;1.20;;;;;;;8.54;43.28;101260.19;106973;1256;60392;-85
2023/03/02 14:13:42;;;;;;;4.90;1.90;;;;;;;8.45;43.69;101260.75;106896;1262;73360;-86
2023/03/02 14:16:13;;;;;;;5.80;1.50;;;;;;;8.37;43.96;101255.98;106917;1258;63840;-85
2023/03/02 14:18:47;;;;;;;;;;;;;;;8.30;44.12;101262.37;106855;1260;75240;-84
2023/03/02 14:21:20;;;;;;;5.80;1.50;;;;;;;8.22;44.13;101261.66;107047;1260;60455;-86
2023/03/02 14:23:50;;;;;;;5.70;2.10;;;;;;;8.06;44.43;101264.19;106786;1260;60431;-84
2023/03/02 14:26:30;;;;;;;3.90;1.50;;;;;;;7.90;44.47;101264.44;106141;1257;73838;-84
2023/03/02 14:29:00;;;;;;;3.90;1.70;;;;;;;7.74;44.83;101260.90;105817;1257;63876;-85
2023/03/02 14:31:33;;;;;;;6.70;1.70;;;;;;;7.59;45.05;101260.04;105639;1261;73626;-85
2023/03/02 14:34:02;;;;;;;4.30;1.40;;;;;;;7.45;45.42;101262.28;105484;1257;60642;-83
2023/03/02 14:36:32;;;;;;;5.30;1.40;;;;;;;7.35;45.94;101263.73;105768;1257;60579;-82
2023/03/02 14:39:02;;;;;;;4.90;2.20;;;;;;;7.25;46.21;101264.92;105909;1257;74785;-85